sensor_id;sensor_type;location;lat;lon;timestamp;pressure;altitude;pressure_sealevel;temperature;humidity
70555;BME280;58104;52.744;15.242;2023-05-15T00:00:53;100528.61;;;20.58;38.21
70555;BME280;58104;52.744;15.242;2023-05-15T00:03:18;100527.67;;;20.52;38.54
70555;BME280;58104;52.744;15.242;2023-05-15T00:05:44;100527.97;;;20.49;38.43
70555;BME280;58104;52.744;15.242;2023-05-15T00:08:09;100524.53;;;20.45;38.60
70555;BME280;58104;52.744;15.242;2023-05-15T00:10:34;100518.71;;;20.48;38.95
70555;BME280;58104;52.744;15.242;2023-05-15T00:13:00;100515.48;;;20.52;38.83
70555;BME280;58104;52.744;15.242;2023-05-15T00:15:26;100512.05;;;20.55;38.99
70555;BME280;58104;52.744;15.242;2023-05-15T00:17:51;100509.34;;;20.54;38.95
70555;BME280;58104;52.744;15.242;2023-05-15T00:20:16;100508.45;;;20.50;39.10
70555;BME280;58104;52.744;15.242;2023-05-15T00:22:41;100504.85;;;20.58;39.06
70555;BME280;58104;52.744;15.242;2023-05-15T00:25:07;100500.53;;;20.64;38.87
70555;BME280;58104;52.744;15.242;2023-05-15T00:27:31;100501.41;;;20.60;39.42
70555;BME280;58104;52.744;15.242;2023-05-15T00:29:57;100495.65;;;20.70;38.92
70555;BME280;58104;52.744;15.242;2023-05-15T00:32:22;100496.98;;;20.79;38.97
70555;BME280;58104;52.744;15.242;2023-05-15T00:34:48;100493.33;;;20.78;39.01
70555;BME280;58104;52.744;15.242;2023-05-15T00:37:14;100491.20;;;20.70;39.37
70555;BME280;58104;52.744;15.242;2023-05-15T00:39:39;100488.98;;;20.87;39.12
70555;BME280;58104;52.744;15.242;2023-05-15T00:42:06;100488.11;;;20.96;38.81
70555;BME280;58104;52.744;15.242;2023-05-15T00:44:31;100488.87;;;20.94;38.86
70555;BME280;58104;52.744;15.242;2023-05-15T00:46:57;100483.06;;;20.74;39.37
70555;BME280;58104;52.744;15.242;2023-05-15T00:49:22;100479.60;;;20.68;39.28
70555;BME280;58104;52.744;15.242;2023-05-15T00:51:48;100478.12;;;20.60;39.40
70555;BME280;58104;52.744;15.242;2023-05-15T00:54:13;100480.50;;;20.57;39.36
70555;BME280;58104;52.744;15.242;2023-05-15T00:56:39;100480.17;;;20.61;39.36
70555;BME280;58104;52.744;15.242;2023-05-15T00:59:04;100480.09;;;20.56;39.11
70555;BME280;58104;52.744;15.242;2023-05-15T01:01:29;100481.95;;;20.84;38.64
70555;BME280;58104;52.744;15.242;2023-05-15T01:03:55;100478.79;;;21.00;38.03
70555;BME280;58104;52.744;15.242;2023-05-15T01:06:21;100474.94;;;21.14;37.84
70555;BME280;58104;52.744;15.242;2023-05-15T01:08:47;100471.90;;;21.17;37.85
70555;BME280;58104;52.744;15.242;2023-05-15T01:11:13;100468.15;;;21.12;37.93
70555;BME280;58104;52.744;15.242;2023-05-15T01:13:37;100466.99;;;21.07;38.22
70555;BME280;58104;52.744;15.242;2023-05-15T01:16:03;100462.89;;;21.05;38.26
70555;BME280;58104;52.744;15.242;2023-05-15T01:18:28;100460.48;;;21.15;37.93
70555;BME280;58104;52.744;15.242;2023-05-15T01:21:10;100459.97;;;21.32;37.75
70555;BME280;58104;52.744;15.242;2023-05-15T01:23:25;100461.55;;;21.21;38.51
70555;BME280;58104;52.744;15.242;2023-05-15T01:25:55;100458.91;;;21.17;38.61
70555;BME280;58104;52.744;15.242;2023-05-15T01:28:12;100453.32;;;21.00;39.12
70555;BME280;58104;52.744;15.242;2023-05-15T01:30:39;100448.68;;;20.86;39.42
70555;BME280;58104;52.744;15.242;2023-05-15T01:33:04;100444.89;;;20.77;39.81
70555;BME280;58104;52.744;15.242;2023-05-15T01:35:31;100446.10;;;20.75;40.05
70555;BME280;58104;52.744;15.242;2023-05-15T01:38:03;100444.76;;;20.82;40.05
70555;BME280;58104;52.744;15.242;2023-05-15T01:40:19;100440.76;;;20.91;39.67
70555;BME280;58104;52.744;15.242;2023-05-15T01:42:50;100437.98;;;20.87;40.02
70555;BME280;58104;52.744;15.242;2023-05-15T01:45:11;100432.21;;;20.93;39.98
70555;BME280;58104;52.744;15.242;2023-05-15T01:47:39;100423.63;;;20.78;40.36
70555;BME280;58104;52.744;15.242;2023-05-15T01:50:01;100421.18;;;20.77;40.31
70555;BME280;58104;52.744;15.242;2023-05-15T01:52:31;100420.86;;;20.53;40.73
70555;BME280;58104;52.744;15.242;2023-05-15T01:54:52;100416.26;;;20.57;40.82
70555;BME280;58104;52.744;15.242;2023-05-15T01:57:16;100409.84;;;20.44;41.18
70555;BME280;58104;52.744;15.242;2023-05-15T01:59:42;100405.91;;;20.40;41.00
70555;BME280;58104;52.744;15.242;2023-05-15T02:02:09;100403.48;;;20.47;40.47
70555;BME280;58104;52.744;15.242;2023-05-15T02:04:33;100399.28;;;20.44;41.29
70555;BME280;58104;52.744;15.242;2023-05-15T02:07:00;100397.34;;;20.33;41.33
70555;BME280;58104;52.744;15.242;2023-05-15T02:09:25;100395.64;;;20.46;41.32
70555;BME280;58104;52.744;15.242;2023-05-15T02:11:50;100392.66;;;20.33;41.27
70555;BME280;58104;52.744;15.242;2023-05-15T02:14:15;100392.47;;;20.29;41.55
70555;BME280;58104;52.744;15.242;2023-05-15T02:16:40;100391.92;;;20.21;41.35
70555;BME280;58104;52.744;15.242;2023-05-15T02:19:05;100390.99;;;20.30;41.20
70555;BME280;58104;52.744;15.242;2023-05-15T02:21:30;100390.83;;;20.31;40.93
70555;BME280;58104;52.744;15.242;2023-05-15T02:23:55;100387.94;;;20.43;40.53
70555;BME280;58104;52.744;15.242;2023-05-15T02:26:30;100383.39;;;20.37;40.71
70555;BME280;58104;52.744;15.242;2023-05-15T02:28:53;100379.41;;;20.47;40.55
70555;BME280;58104;52.744;15.242;2023-05-15T02:31:19;100380.44;;;20.41;40.71
70555;BME280;58104;52.744;15.242;2023-05-15T02:33:43;100377.15;;;20.38;40.76
70555;BME280;58104;52.744;15.242;2023-05-15T02:36:06;100376.47;;;20.70;40.41
70555;BME280;58104;52.744;15.242;2023-05-15T02:38:32;100373.50;;;20.66;40.43
70555;BME280;58104;52.744;15.242;2023-05-15T02:40:54;100371.13;;;20.67;40.29
70555;BME280;58104;52.744;15.242;2023-05-15T02:43:19;100372.09;;;20.69;40.53
70555;BME280;58104;52.744;15.242;2023-05-15T02:45:45;100367.83;;;20.58;40.95
70555;BME280;58104;52.744;15.242;2023-05-15T02:48:10;100367.34;;;20.80;40.40
70555;BME280;58104;52.744;15.242;2023-05-15T02:50:35;100362.96;;;20.65;40.70
70555;BME280;58104;52.744;15.242;2023-05-15T02:53:01;100362.11;;;20.81;40.81
70555;BME280;58104;52.744;15.242;2023-05-15T02:55:26;100357.65;;;20.69;40.81
70555;BME280;58104;52.744;15.242;2023-05-15T02:57:52;100357.12;;;20.78;40.81
70555;BME280;58104;52.744;15.242;2023-05-15T03:00:18;100356.33;;;20.84;40.23
70555;BME280;58104;52.744;15.242;2023-05-15T03:02:43;100353.08;;;20.75;40.51
70555;BME280;58104;52.744;15.242;2023-05-15T03:05:08;100348.40;;;20.58;40.74
70555;BME280;58104;52.744;15.242;2023-05-15T03:07:34;100348.06;;;20.46;41.04
70555;BME280;58104;52.744;15.242;2023-05-15T03:09:59;100346.82;;;20.47;41.24
70555;BME280;58104;52.744;15.242;2023-05-15T03:12:25;100346.57;;;20.46;41.66
70555;BME280;58104;52.744;15.242;2023-05-15T03:14:50;100345.64;;;20.34;41.89
70555;BME280;58104;52.744;15.242;2023-05-15T03:17:15;100346.36;;;20.34;41.91
70555;BME280;58104;52.744;15.242;2023-05-15T03:19:41;100343.63;;;20.32;42.44
70555;BME280;58104;52.744;15.242;2023-05-15T03:22:06;100345.23;;;20.36;42.49
70555;BME280;58104;52.744;15.242;2023-05-15T03:24:32;100346.87;;;20.63;41.58
70555;BME280;58104;52.744;15.242;2023-05-15T03:26:58;100353.85;;;20.55;41.60
70555;BME280;58104;52.744;15.242;2023-05-15T03:29:24;100354.51;;;20.60;41.48
70555;BME280;58104;52.744;15.242;2023-05-15T03:31:49;100354.51;;;20.51;41.46
70555;BME280;58104;52.744;15.242;2023-05-15T03:34:15;100356.55;;;20.79;40.71
70555;BME280;58104;52.744;15.242;2023-05-15T03:36:40;100357.60;;;20.77;41.07
70555;BME280;58104;52.744;15.242;2023-05-15T03:39:05;100358.85;;;20.63;40.97
70555;BME280;58104;52.744;15.242;2023-05-15T03:41:30;100359.25;;;20.58;41.66
70555;BME280;58104;52.744;15.242;2023-05-15T03:43:56;100369.31;;;20.53;41.54
70555;BME280;58104;52.744;15.242;2023-05-15T03:46:21;100385.81;;;20.58;41.26
70555;BME280;58104;52.744;15.242;2023-05-15T03:48:46;100390.85;;;20.36;41.21
70555;BME280;58104;52.744;15.242;2023-05-15T03:51:12;100382.64;;;20.34;41.11
70555;BME280;58104;52.744;15.242;2023-05-15T03:53:38;100373.49;;;20.46;41.09
70555;BME280;58104;52.744;15.242;2023-05-15T03:56:04;100369.70;;;20.43;41.17
70555;BME280;58104;52.744;15.242;2023-05-15T03:58:29;100366.16;;;20.35;41.37
70555;BME280;58104;52.744;15.242;2023-05-15T04:00:54;100372.03;;;20.24;41.48
70555;BME280;58104;52.744;15.242;2023-05-15T04:03:20;100361.74;;;20.24;41.42
70555;BME280;58104;52.744;15.242;2023-05-15T04:05:45;100353.73;;;20.24;41.82
70555;BME280;58104;52.744;15.242;2023-05-15T04:08:10;100351.62;;;20.23;41.92
70555;BME280;58104;52.744;15.242;2023-05-15T04:10:36;100352.27;;;20.58;41.26
70555;BME280;58104;52.744;15.242;2023-05-15T04:13:02;100346.53;;;20.64;41.14
70555;BME280;58104;52.744;15.242;2023-05-15T04:15:27;100344.52;;;20.67;41.13
70555;BME280;58104;52.744;15.242;2023-05-15T04:17:53;100339.95;;;20.79;40.96
70555;BME280;58104;52.744;15.242;2023-05-15T04:20:19;100334.54;;;20.75;40.96
70555;BME280;58104;52.744;15.242;2023-05-15T04:22:44;100331.16;;;20.76;41.25
70555;BME280;58104;52.744;15.242;2023-05-15T04:25:10;100328.66;;;20.57;41.49
70555;BME280;58104;52.744;15.242;2023-05-15T04:27:35;100322.74;;;20.64;41.62
70555;BME280;58104;52.744;15.242;2023-05-15T04:30:00;100314.09;;;20.73;41.55
70555;BME280;58104;52.744;15.242;2023-05-15T04:32:25;100311.32;;;20.67;42.07
70555;BME280;58104;52.744;15.242;2023-05-15T04:34:50;100305.29;;;20.60;42.06
70555;BME280;58104;52.744;15.242;2023-05-15T04:37:16;100302.58;;;20.75;42.00
70555;BME280;58104;52.744;15.242;2023-05-15T04:39:41;100300.76;;;20.83;41.91
70555;BME280;58104;52.744;15.242;2023-05-15T04:42:07;100300.26;;;20.72;42.30
70555;BME280;58104;52.744;15.242;2023-05-15T04:44:32;100296.56;;;20.84;42.26
70555;BME280;58104;52.744;15.242;2023-05-15T04:46:58;100292.18;;;20.54;42.81
70555;BME280;58104;52.744;15.242;2023-05-15T04:49:23;100285.83;;;20.53;43.03
70555;BME280;58104;52.744;15.242;2023-05-15T04:51:49;100278.22;;;20.57;42.81
70555;BME280;58104;52.744;15.242;2023-05-15T04:54:15;100281.15;;;20.81;42.65
70555;BME280;58104;52.744;15.242;2023-05-15T04:56:40;100274.80;;;20.68;42.92
70555;BME280;58104;52.744;15.242;2023-05-15T04:59:05;100274.71;;;20.74;43.04
70555;BME280;58104;52.744;15.242;2023-05-15T05:01:31;100273.45;;;20.93;42.45
70555;BME280;58104;52.744;15.242;2023-05-15T05:03:58;100264.85;;;21.01;42.11
70555;BME280;58104;52.744;15.242;2023-05-15T05:06:23;100261.38;;;20.88;43.40
70555;BME280;58104;52.744;15.242;2023-05-15T05:08:48;100259.37;;;20.88;43.30
70555;BME280;58104;52.744;15.242;2023-05-15T05:11:13;100262.27;;;20.94;45.04
70555;BME280;58104;52.744;15.242;2023-05-15T05:13:38;100258.46;;;20.84;45.24
70555;BME280;58104;52.744;15.242;2023-05-15T05:16:04;100254.60;;;20.68;45.78
70555;BME280;58104;52.744;15.242;2023-05-15T05:18:30;100244.97;;;20.55;46.18
70555;BME280;58104;52.744;15.242;2023-05-15T05:21:00;100237.13;;;20.54;46.40
70555;BME280;58104;52.744;15.242;2023-05-15T05:23:21;100231.82;;;20.49;45.84
70555;BME280;58104;52.744;15.242;2023-05-15T05:25:47;100224.88;;;20.61;45.69
70555;BME280;58104;52.744;15.242;2023-05-15T05:28:12;100218.20;;;20.66;45.31
70555;BME280;58104;52.744;15.242;2023-05-15T05:30:38;100212.71;;;20.70;45.02
70555;BME280;58104;52.744;15.242;2023-05-15T05:33:04;100205.97;;;20.81;44.69
70555;BME280;58104;52.744;15.242;2023-05-15T05:35:30;100204.01;;;20.58;45.12
70555;BME280;58104;52.744;15.242;2023-05-15T05:37:56;100199.21;;;20.65;44.53
70555;BME280;58104;52.744;15.242;2023-05-15T05:40:21;100197.84;;;20.71;44.38
70555;BME280;58104;52.744;15.242;2023-05-15T05:42:46;100195.41;;;20.77;44.17
70555;BME280;58104;52.744;15.242;2023-05-15T05:45:12;100194.97;;;20.69;44.24
70555;BME280;58104;52.744;15.242;2023-05-15T05:47:37;100192.90;;;20.58;44.04
70555;BME280;58104;52.744;15.242;2023-05-15T05:50:03;100191.32;;;20.55;44.55
70555;BME280;58104;52.744;15.242;2023-05-15T05:52:28;100191.42;;;20.58;44.54
70555;BME280;58104;52.744;15.242;2023-05-15T05:54:53;100195.04;;;20.61;44.34
70555;BME280;58104;52.744;15.242;2023-05-15T05:57:19;100194.84;;;20.57;43.93
70555;BME280;58104;52.744;15.242;2023-05-15T05:59:45;100190.41;;;20.67;43.81
70555;BME280;58104;52.744;15.242;2023-05-15T06:02:10;100189.51;;;20.67;43.50
70555;BME280;58104;52.744;15.242;2023-05-15T06:04:35;100190.31;;;20.62;43.28
70555;BME280;58104;52.744;15.242;2023-05-15T06:07:00;100187.20;;;20.84;42.83
70555;BME280;58104;52.744;15.242;2023-05-15T06:09:26;100182.24;;;20.68;43.01
70555;BME280;58104;52.744;15.242;2023-05-15T06:11:51;100185.41;;;20.79;43.05
70555;BME280;58104;52.744;15.242;2023-05-15T06:14:17;100183.79;;;20.89;42.58
70555;BME280;58104;52.744;15.242;2023-05-15T06:16:43;100167.03;;;20.74;42.62
70555;BME280;58104;52.744;15.242;2023-05-15T06:19:09;100172.56;;;20.97;42.78
70555;BME280;58104;52.744;15.242;2023-05-15T06:21:34;100170.58;;;20.82;42.85
70555;BME280;58104;52.744;15.242;2023-05-15T06:23:59;100168.35;;;20.98;42.86
70555;BME280;58104;52.744;15.242;2023-05-15T06:26:24;100164.18;;;21.11;42.97
70555;BME280;58104;52.744;15.242;2023-05-15T06:28:50;100163.48;;;21.21;42.87
70555;BME280;58104;52.744;15.242;2023-05-15T06:31:15;100163.06;;;21.07;43.21
70555;BME280;58104;52.744;15.242;2023-05-15T06:33:41;100161.70;;;21.14;43.11
70555;BME280;58104;52.744;15.242;2023-05-15T06:36:07;100155.68;;;21.26;43.01
70555;BME280;58104;52.744;15.242;2023-05-15T06:38:32;100152.61;;;21.14;42.97
70555;BME280;58104;52.744;15.242;2023-05-15T06:40:57;100145.93;;;21.24;42.79
70555;BME280;58104;52.744;15.242;2023-05-15T06:43:23;100147.09;;;21.17;42.86
70555;BME280;58104;52.744;15.242;2023-05-15T06:45:48;100143.46;;;21.27;42.68
70555;BME280;58104;52.744;15.242;2023-05-15T06:48:13;100142.22;;;21.30;42.69
70555;BME280;58104;52.744;15.242;2023-05-15T06:50:38;100140.17;;;21.33;42.57
70555;BME280;58104;52.744;15.242;2023-05-15T06:53:04;100138.46;;;21.39;42.60
70555;BME280;58104;52.744;15.242;2023-05-15T06:55:29;100133.10;;;21.43;42.52
70555;BME280;58104;52.744;15.242;2023-05-15T06:57:55;100132.29;;;21.55;42.16
70555;BME280;58104;52.744;15.242;2023-05-15T07:00:20;100131.28;;;21.54;41.94
70555;BME280;58104;52.744;15.242;2023-05-15T07:02:46;100131.92;;;21.50;41.59
70555;BME280;58104;52.744;15.242;2023-05-15T07:05:13;100132.63;;;21.63;40.96
70555;BME280;58104;52.744;15.242;2023-05-15T07:07:36;100130.60;;;21.64;40.93
70555;BME280;58104;52.744;15.242;2023-05-15T07:10:02;100124.22;;;21.61;41.14
70555;BME280;58104;52.744;15.242;2023-05-15T07:12:28;100130.00;;;21.65;40.87
70555;BME280;58104;52.744;15.242;2023-05-15T07:14:53;100123.74;;;21.65;40.77
70555;BME280;58104;52.744;15.242;2023-05-15T07:17:18;100120.82;;;21.67;40.64
70555;BME280;58104;52.744;15.242;2023-05-15T07:19:44;100121.46;;;21.69;40.45
70555;BME280;58104;52.744;15.242;2023-05-15T07:22:09;100118.77;;;21.76;40.45
70555;BME280;58104;52.744;15.242;2023-05-15T07:24:35;100112.13;;;21.94;40.59
70555;BME280;58104;52.744;15.242;2023-05-15T07:27:01;100112.76;;;22.03;40.41
70555;BME280;58104;52.744;15.242;2023-05-15T07:29:26;100108.50;;;22.03;40.42
70555;BME280;58104;52.744;15.242;2023-05-15T07:31:51;100107.17;;;22.08;40.85
70555;BME280;58104;52.744;15.242;2023-05-15T07:34:17;100102.68;;;22.03;40.83
70555;BME280;58104;52.744;15.242;2023-05-15T07:36:42;100100.59;;;22.30;40.46
70555;BME280;58104;52.744;15.242;2023-05-15T07:39:08;100101.05;;;22.37;40.45
70555;BME280;58104;52.744;15.242;2023-05-15T07:41:34;100103.04;;;22.18;40.65
70555;BME280;58104;52.744;15.242;2023-05-15T07:43:59;100103.91;;;22.28;40.39
70555;BME280;58104;52.744;15.242;2023-05-15T07:46:25;100106.83;;;21.94;40.54
70555;BME280;58104;52.744;15.242;2023-05-15T07:48:50;100103.59;;;21.98;40.49
70555;BME280;58104;52.744;15.242;2023-05-15T07:51:15;100098.96;;;21.88;40.24
70555;BME280;58104;52.744;15.242;2023-05-15T07:53:41;100104.18;;;22.09;40.19
70555;BME280;58104;52.744;15.242;2023-05-15T07:56:06;100095.82;;;22.08;40.14
70555;BME280;58104;52.744;15.242;2023-05-15T07:58:31;100089.95;;;22.22;40.00
70555;BME280;58104;52.744;15.242;2023-05-15T08:00:57;100085.29;;;22.23;39.93
70555;BME280;58104;52.744;15.242;2023-05-15T08:03:22;100080.28;;;22.39;39.36
70555;BME280;58104;52.744;15.242;2023-05-15T08:05:47;100073.79;;;22.21;40.11
70555;BME280;58104;52.744;15.242;2023-05-15T08:08:13;100077.23;;;22.35;40.03
70555;BME280;58104;52.744;15.242;2023-05-15T08:10:39;100076.01;;;22.24;40.09
70555;BME280;58104;52.744;15.242;2023-05-15T08:13:04;100075.75;;;22.29;39.62
70555;BME280;58104;52.744;15.242;2023-05-15T08:15:30;100074.55;;;22.03;39.93
70555;BME280;58104;52.744;15.242;2023-05-15T08:17:56;100073.34;;;22.16;39.81
70555;BME280;58104;52.744;15.242;2023-05-15T08:20:21;100073.33;;;22.37;39.49
70555;BME280;58104;52.744;15.242;2023-05-15T08:22:46;100069.71;;;22.33;39.55
70555;BME280;58104;52.744;15.242;2023-05-15T08:25:12;100068.42;;;22.33;39.70
70555;BME280;58104;52.744;15.242;2023-05-15T08:27:37;100072.39;;;22.28;39.65
70555;BME280;58104;52.744;15.242;2023-05-15T08:30:04;100072.19;;;22.29;39.72
70555;BME280;58104;52.744;15.242;2023-05-15T08:32:28;100070.49;;;22.33;39.49
70555;BME280;58104;52.744;15.242;2023-05-15T08:34:54;100068.88;;;22.19;39.87
70555;BME280;58104;52.744;15.242;2023-05-15T08:37:19;100070.60;;;22.51;39.10
70555;BME280;58104;52.744;15.242;2023-05-15T08:39:44;100071.08;;;22.49;39.45
70555;BME280;58104;52.744;15.242;2023-05-15T08:42:14;100068.58;;;22.68;38.94
70555;BME280;58104;52.744;15.242;2023-05-15T08:44:35;100068.10;;;22.74;39.46
70555;BME280;58104;52.744;15.242;2023-05-15T08:47:01;100067.67;;;23.04;38.91
70555;BME280;58104;52.744;15.242;2023-05-15T08:49:32;100063.26;;;23.28;38.55
70555;BME280;58104;52.744;15.242;2023-05-15T08:51:52;100064.88;;;23.36;38.35
70555;BME280;58104;52.744;15.242;2023-05-15T08:54:17;100068.32;;;23.30;38.38
70555;BME280;58104;52.744;15.242;2023-05-15T08:56:42;100063.34;;;23.04;38.55
70555;BME280;58104;52.744;15.242;2023-05-15T08:59:07;100068.44;;;23.29;38.18
70555;BME280;58104;52.744;15.242;2023-05-15T09:01:32;100072.26;;;23.37;38.10
70555;BME280;58104;52.744;15.242;2023-05-15T09:03:58;100065.52;;;23.49;37.81
70555;BME280;58104;52.744;15.242;2023-05-15T09:06:24;100068.83;;;23.34;38.19
70555;BME280;58104;52.744;15.242;2023-05-15T09:08:49;100068.06;;;23.22;38.50
70555;BME280;58104;52.744;15.242;2023-05-15T09:11:14;100066.69;;;23.43;38.10
70555;BME280;58104;52.744;15.242;2023-05-15T09:13:39;100069.85;;;22.88;38.69
70555;BME280;58104;52.744;15.242;2023-05-15T09:16:06;100068.64;;;23.26;38.04
70555;BME280;58104;52.744;15.242;2023-05-15T09:18:31;100067.86;;;23.69;37.56
70555;BME280;58104;52.744;15.242;2023-05-15T09:23:23;100068.35;;;24.06;36.58
70555;BME280;58104;52.744;15.242;2023-05-15T09:25:47;100067.65;;;23.67;37.13
70555;BME280;58104;52.744;15.242;2023-05-15T09:30:39;100065.31;;;22.82;37.94
70555;BME280;58104;52.744;15.242;2023-05-15T09:33:03;100062.94;;;22.94;37.61
70555;BME280;58104;52.744;15.242;2023-05-15T09:35:30;100057.78;;;22.81;37.91
70555;BME280;58104;52.744;15.242;2023-05-15T09:37:58;100056.81;;;22.87;37.77
70555;BME280;58104;52.744;15.242;2023-05-15T09:40:19;100052.76;;;22.94;37.53
70555;BME280;58104;52.744;15.242;2023-05-15T09:42:50;100052.40;;;22.73;37.93
70555;BME280;58104;52.744;15.242;2023-05-15T09:45:16;100054.64;;;22.91;37.64
70555;BME280;58104;52.744;15.242;2023-05-15T09:47:37;100051.90;;;22.74;37.80
70555;BME280;58104;52.744;15.242;2023-05-15T09:50:05;100050.18;;;22.71;37.21
70555;BME280;58104;52.744;15.242;2023-05-15T09:52:27;100048.80;;;22.76;37.45
70555;BME280;58104;52.744;15.242;2023-05-15T09:54:53;100048.24;;;22.33;38.65
70555;BME280;58104;52.744;15.242;2023-05-15T09:57:20;100047.66;;;22.48;38.17
70555;BME280;58104;52.744;15.242;2023-05-15T09:59:45;100046.56;;;22.39;38.26
70555;BME280;58104;52.744;15.242;2023-05-15T10:02:12;100043.93;;;22.55;38.27
70555;BME280;58104;52.744;15.242;2023-05-15T10:04:34;100041.27;;;22.59;37.66
70555;BME280;58104;52.744;15.242;2023-05-15T10:07:00;100037.93;;;22.74;37.91
70555;BME280;58104;52.744;15.242;2023-05-15T10:09:29;100036.31;;;22.79;37.69
70555;BME280;58104;52.744;15.242;2023-05-15T10:11:51;100034.73;;;22.96;37.53
70555;BME280;58104;52.744;15.242;2023-05-15T10:14:17;100033.34;;;22.71;37.63
70555;BME280;58104;52.744;15.242;2023-05-15T10:16:42;100026.52;;;22.81;37.50
70555;BME280;58104;52.744;15.242;2023-05-15T10:19:09;100022.95;;;22.94;37.36
70555;BME280;58104;52.744;15.242;2023-05-15T10:21:35;100019.90;;;22.93;37.11
70555;BME280;58104;52.744;15.242;2023-05-15T10:24:00;100017.71;;;23.07;36.63
70555;BME280;58104;52.744;15.242;2023-05-15T10:26:32;100021.66;;;22.74;37.45
70555;BME280;58104;52.744;15.242;2023-05-15T10:28:50;100017.07;;;22.70;36.99
70555;BME280;58104;52.744;15.242;2023-05-15T10:31:17;100014.16;;;22.67;37.16
70555;BME280;58104;52.744;15.242;2023-05-15T10:33:41;100016.88;;;22.79;36.48
70555;BME280;58104;52.744;15.242;2023-05-15T10:36:06;100015.83;;;22.95;36.78
70555;BME280;58104;52.744;15.242;2023-05-15T10:38:31;100017.89;;;22.83;37.15
70555;BME280;58104;52.744;15.242;2023-05-15T10:40:57;100016.97;;;22.99;36.97
70555;BME280;58104;52.744;15.242;2023-05-15T10:43:22;100009.77;;;22.86;37.40
70555;BME280;58104;52.744;15.242;2023-05-15T10:45:48;100008.94;;;22.90;36.39
70555;BME280;58104;52.744;15.242;2023-05-15T10:48:13;100009.01;;;23.02;37.37
70555;BME280;58104;52.744;15.242;2023-05-15T10:50:38;100007.28;;;22.91;37.17
70555;BME280;58104;52.744;15.242;2023-05-15T10:53:04;100008.51;;;22.74;37.03
70555;BME280;58104;52.744;15.242;2023-05-15T10:55:29;100006.79;;;23.00;37.38
70555;BME280;58104;52.744;15.242;2023-05-15T10:57:55;100002.72;;;22.37;37.64
70555;BME280;58104;52.744;15.242;2023-05-15T11:00:25;99999.40;;;22.42;37.34
70555;BME280;58104;52.744;15.242;2023-05-15T11:02:47;99995.43;;;22.35;37.09
70555;BME280;58104;52.744;15.242;2023-05-15T11:05:12;99994.21;;;22.89;36.72
70555;BME280;58104;52.744;15.242;2023-05-15T11:07:37;99995.07;;;23.23;36.07
70555;BME280;58104;52.744;15.242;2023-05-15T11:17:18;99984.19;;;23.37;36.34
70555;BME280;58104;52.744;15.242;2023-05-15T11:22:16;99981.86;;;23.91;35.62
70555;BME280;58104;52.744;15.242;2023-05-15T11:27:01;99983.14;;;23.50;36.19
70555;BME280;58104;52.744;15.242;2023-05-15T11:29:26;99978.06;;;23.93;35.72
70555;BME280;58104;52.744;15.242;2023-05-15T11:31:51;99976.67;;;24.00;35.67
70555;BME280;58104;52.744;15.242;2023-05-15T11:36:42;99973.94;;;24.19;35.50
70555;BME280;58104;52.744;15.242;2023-05-15T11:39:09;99971.64;;;24.22;35.43
70555;BME280;58104;52.744;15.242;2023-05-15T11:41:32;99975.15;;;24.24;35.43
70555;BME280;58104;52.744;15.242;2023-05-15T11:43:57;99978.55;;;24.25;35.43
70555;BME280;58104;52.744;15.242;2023-05-15T11:46:23;99979.10;;;24.18;35.41
70555;BME280;58104;52.744;15.242;2023-05-15T11:48:49;99974.72;;;24.01;35.70
70555;BME280;58104;52.744;15.242;2023-05-15T11:51:19;99979.32;;;23.99;36.01
70555;BME280;58104;52.744;15.242;2023-05-15T11:53:39;99979.91;;;23.98;36.03
70555;BME280;58104;52.744;15.242;2023-05-15T11:56:04;99980.67;;;23.94;35.91
70555;BME280;58104;52.744;15.242;2023-05-15T11:58:30;99979.66;;;24.07;35.96
70555;BME280;58104;52.744;15.242;2023-05-15T12:00:56;99981.70;;;23.75;36.41
70555;BME280;58104;52.744;15.242;2023-05-15T12:03:22;99978.96;;;23.44;36.79
70555;BME280;58104;52.744;15.242;2023-05-15T12:05:46;99975.65;;;23.49;36.51
70555;BME280;58104;52.744;15.242;2023-05-15T12:08:12;99977.93;;;23.41;36.42
70555;BME280;58104;52.744;15.242;2023-05-15T12:10:40;99976.51;;;23.33;36.47
70555;BME280;58104;52.744;15.242;2023-05-15T12:13:02;99972.52;;;23.22;36.51
70555;BME280;58104;52.744;15.242;2023-05-15T12:15:27;99971.86;;;23.18;36.51
70555;BME280;58104;52.744;15.242;2023-05-15T12:17:52;99973.91;;;23.05;36.69
70555;BME280;58104;52.744;15.242;2023-05-15T12:20:18;99974.04;;;23.07;36.83
70555;BME280;58104;52.744;15.242;2023-05-15T12:22:44;99973.28;;;22.97;36.94
70555;BME280;58104;52.744;15.242;2023-05-15T12:25:10;99971.35;;;23.07;37.08
70555;BME280;58104;52.744;15.242;2023-05-15T12:27:35;99969.85;;;23.20;37.03
70555;BME280;58104;52.744;15.242;2023-05-15T12:30:00;99965.88;;;23.09;37.03
70555;BME280;58104;52.744;15.242;2023-05-15T12:32:25;99963.17;;;22.88;37.83
70555;BME280;58104;52.744;15.242;2023-05-15T12:34:50;99962.50;;;23.15;37.20
70555;BME280;58104;52.744;15.242;2023-05-15T12:37:18;99956.23;;;23.08;37.15
70555;BME280;58104;52.744;15.242;2023-05-15T12:39:50;99956.11;;;23.12;37.67
70555;BME280;58104;52.744;15.242;2023-05-15T12:42:07;99953.77;;;23.05;37.97
70555;BME280;58104;52.744;15.242;2023-05-15T12:44:32;99949.13;;;23.07;38.06
70555;BME280;58104;52.744;15.242;2023-05-15T12:46:57;99949.68;;;23.05;37.90
70555;BME280;58104;52.744;15.242;2023-05-15T12:49:23;99952.50;;;22.99;38.76